createdAt,value
2023-02-08T00:01:34.512Z,20.70
2023-02-08T00:06:42.440Z,22.70
2023-02-08T00:11:50.126Z,23.30
2023-02-08T00:16:57.585Z,22.10
2023-02-08T00:22:05.162Z,18.00
2023-02-08T00:27:12.802Z,21.20
2023-02-08T00:32:20.908Z,22.50
2023-02-08T00:37:28.320Z,21.40
2023-02-08T00:42:36.146Z,20.50
2023-02-08T00:47:44.047Z,18.00
2023-02-08T00:52:51.947Z,16.80
2023-02-08T00:57:59.545Z,21.00
2023-02-08T01:03:07.976Z,17.40
2023-02-08T01:08:15.833Z,23.70
2023-02-08T01:13:23.593Z,18.90
2023-02-08T01:18:31.841Z,16.50
2023-02-08T01:23:39.929Z,21.40
2023-02-08T01:28:47.876Z,17.10
2023-02-08T01:33:55.738Z,14.30
2023-02-08T01:39:03.607Z,22.20
2023-02-08T01:44:26.515Z,21.80
2023-02-08T01:49:39.813Z,17.40
2023-02-08T02:00:02.766Z,17.10
2023-02-08T02:05:22.141Z,18.70
2023-02-08T02:10:32.718Z,20.60
2023-02-08T02:15:40.341Z,15.60
2023-02-08T02:21:04.613Z,16.70
2023-02-08T02:26:37.586Z,15.90
2023-02-08T02:32:01.643Z,20.70
2023-02-08T02:37:19.677Z,18.60
2023-02-08T02:42:54.451Z,18.00
2023-02-08T02:48:12.091Z,18.70
2023-02-08T02:53:23.628Z,18.10
2023-02-08T02:58:33.222Z,23.40
2023-02-08T03:03:41.024Z,20.10
2023-02-08T03:09:08.757Z,17.30
2023-02-08T03:14:44.227Z,13.00
2023-02-08T03:20:00.134Z,13.00
2023-02-08T03:25:15.036Z,13.40
2023-02-08T03:30:30.094Z,17.00
2023-02-08T03:35:40.411Z,13.60
2023-02-08T03:40:50.502Z,14.60
2023-02-08T03:46:05.225Z,16.40
2023-02-08T03:51:13.083Z,14.10
2023-02-08T03:56:28.943Z,17.50
2023-02-08T04:01:43.801Z,14.90
2023-02-08T04:06:51.466Z,14.50
2023-02-08T04:11:59.137Z,12.40
2023-02-08T04:17:06.568Z,18.20
2023-02-08T04:22:14.145Z,14.00
2023-02-08T04:27:21.886Z,13.50
2023-02-08T04:32:29.435Z,16.00
2023-02-08T04:37:36.874Z,15.20
2023-02-08T04:42:44.270Z,18.20
2023-02-08T04:47:51.788Z,13.10
2023-02-08T04:52:59.310Z,11.80
2023-02-08T04:58:06.825Z,13.20
2023-02-08T05:03:14.290Z,12.40
2023-02-08T05:08:21.747Z,13.60
2023-02-08T05:13:29.076Z,12.50
2023-02-08T05:18:36.359Z,13.00
2023-02-08T05:23:45.786Z,11.40
2023-02-08T05:28:54.663Z,9.30
2023-02-08T05:34:02.097Z,10.60
2023-02-08T05:39:09.904Z,8.00
2023-02-08T05:44:17.222Z,13.30
2023-02-08T05:49:24.773Z,10.30
2023-02-08T05:54:32.455Z,12.10
2023-02-08T05:59:39.941Z,9.60
2023-02-08T06:04:47.819Z,13.10
2023-02-08T06:09:55.341Z,9.70
2023-02-08T06:15:02.762Z,8.20
2023-02-08T06:20:12.183Z,8.30
2023-02-08T06:25:20.170Z,10.30
2023-02-08T06:30:27.779Z,10.30
2023-02-08T06:35:35.315Z,11.50
2023-02-08T06:40:42.910Z,11.20
2023-02-08T06:45:50.798Z,7.80
2023-02-08T06:50:58.373Z,11.80
2023-02-08T06:56:05.933Z,9.30
2023-02-08T07:01:15.415Z,8.20
2023-02-08T07:06:23.654Z,12.80
2023-02-08T07:11:30.922Z,10.80
2023-02-08T07:16:38.500Z,10.70
2023-02-08T07:21:46.043Z,10.80
2023-02-08T07:26:53.454Z,11.50
2023-02-08T07:32:02.430Z,10.50
2023-02-08T07:37:10.018Z,13.60
2023-02-08T07:42:17.496Z,17.60
2023-02-08T07:47:33.126Z,15.80
2023-02-08T07:52:41.642Z,14.50
2023-02-08T07:57:50.547Z,13.90
2023-02-08T08:02:57.871Z,16.60
2023-02-08T08:08:05.323Z,14.30
2023-02-08T08:13:12.836Z,12.10
2023-02-08T08:18:20.385Z,14.90
2023-02-08T08:23:29.473Z,17.10
2023-02-08T08:28:37.052Z,9.30
2023-02-08T08:33:44.689Z,14.00
2023-02-08T08:38:53.073Z,10.30
2023-02-08T08:44:00.599Z,11.50
2023-02-08T08:49:07.968Z,9.80
2023-02-08T08:54:15.419Z,12.70
2023-02-08T08:59:22.916Z,12.00
2023-02-08T09:04:30.464Z,13.80
2023-02-08T09:09:39.083Z,15.50
2023-02-08T09:14:46.849Z,14.10
2023-02-08T09:19:54.668Z,13.20
2023-02-08T09:25:02.805Z,15.40
2023-02-08T09:30:12.204Z,16.70
2023-02-08T09:35:20.812Z,13.90
2023-02-08T09:40:36.574Z,12.00
2023-02-08T09:45:59.850Z,10.70
2023-02-08T09:51:13.317Z,11.60
2023-02-08T09:56:27.853Z,14.40
2023-02-08T10:01:38.596Z,9.70
2023-02-08T10:06:46.897Z,8.70
2023-02-08T10:12:04.981Z,10.10
2023-02-08T10:17:49.122Z,12.30
2023-02-08T10:23:07.865Z,11.80
2023-02-08T10:28:34.161Z,11.60
2023-02-08T10:33:51.278Z,10.90
2023-02-08T10:39:01.236Z,10.00
2023-02-08T10:44:17.063Z,8.10
2023-02-08T10:49:33.920Z,8.60
2023-02-08T10:54:41.658Z,9.30
2023-02-08T10:59:54.563Z,12.20
2023-02-08T11:05:08.123Z,7.00
2023-02-08T11:10:27.856Z,7.70
2023-02-08T11:15:46.804Z,8.40
2023-02-08T11:20:59.051Z,7.20
2023-02-08T11:36:37.432Z,5.20
2023-02-08T11:41:47.386Z,5.10
2023-02-08T11:46:57.077Z,5.90
2023-02-08T11:52:04.851Z,6.00
2023-02-08T11:57:21.826Z,5.90
2023-02-08T12:02:40.132Z,7.30
2023-02-08T12:08:10.526Z,5.20
2023-02-08T12:13:39.896Z,4.70
2023-02-08T12:19:18.643Z,6.40
2023-02-08T12:24:38.552Z,8.10
2023-02-08T12:29:56.295Z,8.50
2023-02-08T12:35:39.922Z,5.20
2023-02-08T12:41:03.692Z,7.30
2023-02-08T12:46:35.462Z,5.90
2023-02-08T12:51:50.284Z,6.00
2023-02-08T12:57:02.405Z,4.70
2023-02-08T13:02:19.764Z,6.20
2023-02-08T13:07:34.148Z,7.80
2023-02-08T13:12:46.225Z,2.00
2023-02-08T13:17:56.912Z,6.10
2023-02-08T13:23:14.978Z,5.90
2023-02-08T13:28:26.547Z,7.10
2023-02-08T13:33:59.259Z,7.00
2023-02-08T13:39:10.911Z,5.50
2023-02-08T13:44:29.038Z,4.90
2023-02-08T13:49:59.069Z,4.70
2023-02-08T13:55:52.043Z,6.50
2023-02-08T14:01:24.072Z,6.10
2023-02-08T14:06:34.644Z,3.90
2023-02-08T14:11:50.155Z,5.20
2023-02-08T14:17:21.005Z,7.40
2023-02-08T14:22:33.651Z,5.90
2023-02-08T14:27:52.136Z,7.60
2023-02-08T14:33:22.257Z,4.10
2023-02-08T14:39:08.691Z,5.20
2023-02-08T14:44:56.584Z,6.80
2023-02-08T14:50:18.499Z,6.70
2023-02-08T14:55:29.619Z,5.80
2023-02-08T15:00:40.437Z,8.30
2023-02-08T15:06:10.505Z,8.70
2023-02-08T15:11:27.169Z,6.80
2023-02-08T15:16:42.695Z,8.10
2023-02-08T15:21:52.052Z,7.70
2023-02-08T15:27:01.338Z,6.40
2023-02-08T15:32:18.308Z,7.20
2023-02-08T15:37:26.429Z,11.30
2023-02-08T15:42:37.506Z,7.40
2023-02-08T15:47:45.694Z,9.70
2023-02-08T15:53:02.468Z,8.70
2023-02-08T15:58:18.490Z,10.30
2023-02-08T16:03:28.385Z,9.00
2023-02-08T16:08:40.389Z,8.60
2023-02-08T16:13:52.025Z,8.40
2023-02-08T16:19:05.950Z,13.30
2023-02-08T16:24:24.891Z,11.90
2023-02-08T16:29:34.412Z,13.10
2023-02-08T16:34:42.731Z,12.70
2023-02-08T16:40:02.986Z,15.90
2023-02-08T16:45:26.462Z,18.20
2023-02-08T16:50:43.256Z,16.70
2023-02-08T16:55:51.097Z,14.90
2023-02-08T17:01:00.458Z,16.80
2023-02-08T17:06:09.777Z,16.70
2023-02-08T17:11:17.546Z,18.90
2023-02-08T17:16:26.862Z,15.40
2023-02-08T17:21:35.081Z,14.50
2023-02-08T17:26:45.487Z,11.40
2023-02-08T17:31:53.284Z,14.40
2023-02-08T17:37:01.234Z,17.40
2023-02-08T17:42:09.313Z,14.00
2023-02-08T17:47:17.474Z,14.80
2023-02-08T17:52:25.486Z,13.70
2023-02-08T17:57:34.793Z,13.60
2023-02-08T18:02:43.639Z,16.60
2023-02-08T18:07:52.008Z,18.00
2023-02-08T18:12:59.528Z,16.20
2023-02-08T18:18:07.205Z,16.90
2023-02-08T18:23:15.744Z,12.60
2023-02-08T18:28:23.624Z,8.30
2023-02-08T18:33:31.134Z,13.20
2023-02-08T18:38:38.817Z,21.90
2023-02-08T18:43:46.519Z,17.60
2023-02-08T18:48:55.082Z,18.80
2023-02-08T18:54:02.818Z,19.70
2023-02-08T18:59:11.234Z,20.30
2023-02-08T19:04:18.775Z,25.00
2023-02-08T19:09:26.365Z,24.60
2023-02-08T19:14:33.748Z,24.00
2023-02-08T19:19:41.172Z,26.10
2023-02-08T19:24:48.763Z,28.00
2023-02-08T19:29:56.926Z,29.70
2023-02-08T19:35:04.428Z,28.80
2023-02-08T19:40:14.773Z,26.20
2023-02-08T19:45:22.332Z,22.30
2023-02-08T19:50:29.729Z,25.10
2023-02-08T19:55:37.090Z,23.80
2023-02-08T20:00:44.712Z,19.30
2023-02-08T20:05:53.977Z,18.10
2023-02-08T20:11:01.448Z,17.50
2023-02-08T20:16:09.407Z,19.10
2023-02-08T20:21:17.040Z,19.90
2023-02-08T20:26:26.642Z,19.30
2023-02-08T20:31:35.513Z,15.10
2023-02-08T20:36:54.508Z,21.20
2023-02-08T20:42:10.323Z,20.70
2023-02-08T20:47:19.770Z,23.50
2023-02-08T20:52:27.003Z,22.30
2023-02-08T20:57:34.254Z,23.30
2023-02-08T21:02:42.328Z,21.30
2023-02-08T21:07:49.960Z,21.80
2023-02-08T21:12:57.400Z,23.60
2023-02-08T21:18:04.903Z,21.70
2023-02-08T21:23:12.695Z,23.50
2023-02-08T21:28:20.208Z,23.60
2023-02-08T21:33:28.031Z,23.90
2023-02-08T21:38:35.262Z,25.00
2023-02-08T21:43:42.844Z,24.20
2023-02-08T21:49:07.862Z,24.10
2023-02-08T21:54:35.233Z,29.00
2023-02-08T21:59:42.694Z,33.60
2023-02-08T22:04:50.239Z,33.00
2023-02-08T22:09:57.998Z,28.90
2023-02-08T22:15:05.969Z,34.60
2023-02-08T22:20:15.376Z,31.30
2023-02-08T22:25:23.855Z,33.40
2023-02-08T22:30:31.874Z,31.70
2023-02-08T22:35:40.142Z,28.60
2023-02-08T22:40:47.727Z,31.90
2023-02-08T22:46:01.972Z,32.10
2023-02-08T22:51:15.141Z,35.20
2023-02-08T22:56:22.928Z,33.40
2023-02-08T23:01:31.081Z,35.90
2023-02-08T23:06:39.167Z,29.00
2023-02-08T23:11:52.305Z,31.30
2023-02-08T23:16:59.852Z,32.30
2023-02-08T23:22:07.362Z,42.30
2023-02-08T23:27:14.713Z,35.50
2023-02-08T23:32:22.161Z,31.60
2023-02-08T23:37:29.757Z,27.90
2023-02-08T23:42:37.162Z,33.40
2023-02-08T23:47:44.796Z,38.30
2023-02-08T23:52:52.081Z,36.30
2023-02-08T23:57:59.446Z,40.80
